Finley, California
Current Conditions -  °F | °C
As of 3:10 PM on Sunday 21 Dec 2014 (Local Time) from KUKI Reporting Station
Overcast Overcast  
Wind Chill: 61°   Ceiling: 3100
Heat Index: 61°   Visibility: 10mi
Dew Point: 57°   Wind: 3mph
Humidity: 87%   Direction: 150°SSE
Pressure: 30.27"   Gusts: NA
Location:  39°N, 122.87°W
Report Text: KUKI 212310Z AUTO 15003KT 10SM FEW024 BKN031 OVC035 16/14 A3027 RMK AO2 T01610139
Loading
Personal Weather Stations






























Interactive Weather Map New forecast layout! Learn more

10-Day Weather Forecast

Advertisements
Track Severe Weather on mobile